Time;durP1;ratioP1;P1;durP2;ratioP2;P2;SDS_P1;SDS_P2;PMS_P1;PMS_P2;Temp;Humidity;BMP_temperature;BMP_pressure;BME280_temperature;BME280_humidity;BME280_pressure;Samples;Min_cycle;Max_cycle;Signal;HPM_P1;HPM_P2
2021/01/20 00:01:20;;;;;;;20.13;12.50;;;7.30;86.30;;;;;;5032173;28;20060;-76
2021/01/20 00:03:46;;;;;;;21.48;12.75;;;7.30;86.40;;;;;;5037354;28;20033;-78
2021/01/20 00:06:12;;;;;;;18.02;12.63;;;7.40;86.30;;;;;;5032919;28;20033;-75
2021/01/20 00:08:38;;;;;;;21.80;13.35;;;7.40;86.40;;;;;;5030632;28;20392;-77
2021/01/20 00:11:04;;;;;;;21.25;14.35;;;7.30;86.50;;;;;;5030899;28;20034;-80
2021/01/20 00:13:30;;;;;;;21.15;13.57;;;7.40;86.50;;;;;;5032061;28;21107;-75
2021/01/20 00:15:55;;;;;;;20.33;13.48;;;7.40;86.40;;;;;;5034845;28;20063;-77
2021/01/20 00:18:21;;;;;;;21.83;14.05;;;7.40;86.40;;;;;;5034359;28;20033;-78
2021/01/20 00:20:47;;;;;;;20.60;13.70;;;7.30;86.50;;;;;;5035884;28;20654;-77
2021/01/20 00:23:13;;;;;;;23.00;14.23;;;7.40;86.50;;;;;;5041316;28;20159;-77
2021/01/20 00:25:39;;;;;;;18.25;12.90;;;7.40;86.60;;;;;;5043310;28;20033;-80
2021/01/20 00:28:04;;;;;;;20.90;14.05;;;7.40;86.60;;;;;;5042080;28;20530;-78
2021/01/20 00:30:30;;;;;;;20.35;13.35;;;7.40;86.40;;;;;;5034639;28;20033;-79
2021/01/20 00:32:58;;;;;;;21.65;14.30;;;7.40;86.40;;;;;;5035076;28;20055;-79
2021/01/20 00:35:24;;;;;;;19.40;13.77;;;7.40;86.50;;;;;;5033177;28;20041;-81
2021/01/20 00:37:50;;;;;;;21.30;14.02;;;7.40;86.70;;;;;;5031499;28;20067;-79
2021/01/20 00:40:17;;;;;;;22.08;14.93;;;7.40;86.60;;;;;;5032550;28;20082;-80
2021/01/20 00:42:42;;;;;;;20.42;14.40;;;7.40;86.60;;;;;;5045782;28;20415;-80
2021/01/20 00:45:09;;;;;;;21.75;14.20;;;7.40;86.60;;;;;;5026780;28;20037;-80
2021/01/20 00:47:34;;;;;;;19.77;13.32;;;7.40;86.70;;;;;;5033036;28;20053;-76
2021/01/20 00:50:00;;;;;;;23.27;14.30;;;7.30;86.80;;;;;;5033097;28;20049;-76
2021/01/20 00:52:26;;;;;;;19.88;14.20;;;7.40;86.80;;;;;;5033534;28;20041;-80
2021/01/20 00:54:51;;;;;;;23.55;14.05;;;7.40;86.80;;;;;;5034091;28;20070;-78
2021/01/20 00:57:17;;;;;;;22.73;15.05;;;7.30;86.70;;;;;;5031692;28;20114;-77
2021/01/20 00:59:42;;;;;;;22.13;14.40;;;7.30;86.90;;;;;;5031705;28;20067;-81
2021/01/20 01:02:08;;;;;;;23.33;15.25;;;7.40;86.80;;;;;;5036538;28;20040;-78
2021/01/20 01:04:34;;;;;;;23.75;15.70;;;7.30;87.00;;;;;;5027999;28;22063;-76
2021/01/20 01:06:59;;;;;;;24.90;15.50;;;7.30;87.40;;;;;;5032084;28;20037;-77
2021/01/20 01:09:25;;;;;;;23.17;15.52;;;7.30;87.90;;;;;;5028148;28;20057;-80
2021/01/20 01:11:51;;;;;;;21.35;14.82;;;7.30;88.10;;;;;;5032845;28;20402;-77
2021/01/20 01:14:16;;;;;;;23.67;14.90;;;7.30;88.10;;;;;;5030330;28;20451;-77
2021/01/20 01:16:42;;;;;;;20.92;14.30;;;7.30;88.10;;;;;;5029685;28;20068;-76
2021/01/20 01:19:08;;;;;;;19.92;14.25;;;7.30;88.10;;;;;;5029474;28;20109;-79
2021/01/20 01:21:34;;;;;;;20.17;14.02;;;7.30;88.10;;;;;;5045192;28;20112;-76
2021/01/20 01:24:00;;;;;;;21.63;14.68;;;7.30;88.10;;;;;;5033863;28;20032;-76
2021/01/20 01:26:27;;;;;;;20.48;14.30;;;7.30;88.10;;;;;;5029674;28;21225;-78
2021/01/20 01:28:52;;;;;;;24.27;14.48;;;7.30;88.00;;;;;;5030675;28;20041;-78
2021/01/20 01:31:18;;;;;;;21.40;14.38;;;7.30;88.10;;;;;;5042360;28;20045;-80
2021/01/20 01:33:44;;;;;;;21.90;15.38;;;7.30;88.00;;;;;;5035566;28;20123;-77
2021/01/20 01:36:10;;;;;;;19.05;13.73;;;7.30;88.00;;;;;;5033385;28;20366;-78
2021/01/20 01:38:35;;;;;;;21.50;13.88;;;7.30;88.00;;;;;;5029581;28;20369;-77
2021/01/20 01:41:01;;;;;;;19.27;13.75;;;7.30;88.00;;;;;;5031282;28;20044;-78
2021/01/20 01:43:27;;;;;;;20.98;14.43;;;7.40;88.00;;;;;;5028736;28;20060;-77
2021/01/20 01:45:53;;;;;;;19.83;13.70;;;7.30;88.10;;;;;;5032895;28;20029;-76
2021/01/20 01:48:18;;;;;;;18.88;13.88;;;7.40;88.20;;;;;;5030869;28;20052;-82
2021/01/20 01:50:47;;;;;;;20.83;13.90;;;7.30;88.20;;;;;;5032581;28;20041;-75
2021/01/20 01:53:13;;;;;;;23.08;14.70;;;7.30;88.10;;;;;;5034390;28;20029;-75
2021/01/20 01:55:39;;;;;;;17.67;13.23;;;7.30;88.10;;;;;;5040468;28;20036;-77
2021/01/20 01:58:05;;;;;;;19.98;13.50;;;7.30;88.30;;;;;;5033758;28;20053;-78
2021/01/20 02:00:32;;;;;;;20.85;14.00;;;7.40;88.30;;;;;;5030865;28;21325;-79
2021/01/20 02:02:59;;;;;;;19.00;12.30;;;7.40;88.30;;;;;;5031017;28;20140;-77
2021/01/20 02:05:24;;;;;;;22.15;12.93;;;7.30;88.30;;;;;;5030560;28;20068;-76
2021/01/20 02:07:50;;;;;;;18.90;13.57;;;7.40;88.10;;;;;;5029766;28;20112;-77
2021/01/20 02:10:16;;;;;;;21.08;13.40;;;7.40;87.90;;;;;;5028960;28;20033;-80
2021/01/20 02:13:14;;;;;;;19.98;13.45;;;7.40;88.00;;;;;;5031481;28;20507;-78
2021/01/20 02:16:10;;;;;;;17.15;13.00;;;7.40;87.80;;;;;;5032496;28;20488;-74
2021/01/20 02:18:37;;;;;;;18.70;12.98;;;7.40;87.80;;;;;;5025168;28;20041;-74
2021/01/20 02:21:09;;;;;;;18.35;12.82;;;7.40;87.80;;;;;;5031546;28;20108;-77
2021/01/20 02:23:39;;;;;;;18.05;12.38;;;7.40;87.60;;;;;;5034197;28;20064;-81
2021/01/20 02:26:38;;;;;;;18.15;12.65;;;7.40;87.70;;;;;;5031315;28;20629;-78
2021/01/20 02:29:29;;;;;;;16.58;11.70;;;7.40;87.50;;;;;;5029795;28;20049;-75
2021/01/20 02:31:55;;;;;;;18.80;12.23;;;7.40;87.60;;;;;;5032125;28;20123;-75
2021/01/20 02:34:22;;;;;;;21.42;12.82;;;7.40;87.40;;;;;;5028819;28;20116;-78
2021/01/20 02:36:50;;;;;;;18.40;12.07;;;7.40;87.40;;;;;;5032710;28;20053;-75
2021/01/20 02:39:19;;;;;;;18.42;12.23;;;7.40;87.20;;;;;;5030447;28;20040;-75
2021/01/20 02:41:45;;;;;;;18.25;12.55;;;7.50;87.20;;;;;;5031007;28;20052;-77
2021/01/20 02:44:11;;;;;;;20.98;12.10;;;7.50;86.90;;;;;;5035985;28;20443;-75
2021/01/20 02:46:39;;;;;;;16.33;11.68;;;7.50;86.80;;;;;;5037292;28;20399;-76
2021/01/20 02:49:05;;;;;;;19.10;11.88;;;7.50;87.00;;;;;;5032871;28;20045;-76
2021/01/20 02:51:46;;;;;;;22.40;12.13;;;7.60;86.50;;;;;;5026092;28;20059;-75
2021/01/20 02:54:14;;;;;;;16.52;11.65;;;7.60;86.50;;;;;;5030508;28;20389;-76
2021/01/20 02:56:46;;;;;;;17.77;11.23;;;7.60;86.30;;;;;;5030443;28;20472;-74
2021/01/20 02:59:13;;;;;;;15.45;10.75;;;7.60;86.40;;;;;;5039999;28;20045;-75
2021/01/20 03:01:43;;;;;;;16.58;10.60;;;7.60;86.40;;;;;;5035527;28;20142;-75
2021/01/20 03:04:10;;;;;;;16.20;10.65;;;7.60;86.10;;;;;;5031511;28;20053;-77
2021/01/20 03:06:36;;;;;;;18.02;10.82;;;7.60;85.90;;;;;;5030802;28;20098;-76
2021/01/20 03:09:02;;;;;;;15.43;10.18;;;7.60;85.90;;;;;;5030155;28;20037;-80
2021/01/20 03:11:28;;;;;;;14.23;10.05;;;7.60;85.90;;;;;;5028840;28;20065;-75
2021/01/20 03:13:55;;;;;;;15.13;10.73;;;7.70;85.70;;;;;;5028698;28;20494;-75
2021/01/20 03:16:27;;;;;;;14.35;10.52;;;7.60;85.70;;;;;;5028916;28;20041;-78
2021/01/20 03:18:53;;;;;;;13.77;9.80;;;7.70;85.80;;;;;;5029770;28;20045;-79
2021/01/20 03:21:19;;;;;;;15.13;10.05;;;7.70;85.60;;;;;;5027944;28;20033;-80
2021/01/20 03:23:44;;;;;;;15.43;9.80;;;7.70;85.20;;;;;;5029247;28;20033;-77
2021/01/20 03:26:10;;;;;;;14.13;9.10;;;7.70;85.20;;;;;;5032869;28;20445;-76
2021/01/20 03:28:36;;;;;;;16.13;9.75;;;7.70;85.10;;;;;;5029309;28;20437;-78
2021/01/20 03:31:02;;;;;;;16.55;9.57;;;7.70;85.00;;;;;;5030777;28;20043;-77
2021/01/20 03:33:27;;;;;;;12.80;9.98;;;7.70;85.00;;;;;;5033789;28;20745;-79
2021/01/20 03:35:53;;;;;;;17.10;10.45;;;7.70;85.20;;;;;;5036849;28;20439;-78
2021/01/20 03:38:18;;;;;;;15.02;9.35;;;7.70;85.00;;;;;;5030048;28;20044;-80
2021/01/20 03:40:44;;;;;;;12.75;9.00;;;7.70;84.80;;;;;;5035733;28;20179;-78
2021/01/20 03:43:10;;;;;;;13.38;8.05;;;7.70;84.80;;;;;;5036159;28;20091;-76
2021/01/20 03:45:35;;;;;;;13.52;8.70;;;7.70;84.70;;;;;;5033588;28;20053;-76
2021/01/20 03:48:01;;;;;;;14.25;8.50;;;7.70;84.80;;;;;;5035881;28;20041;-76
2021/01/20 03:50:27;;;;;;;12.73;8.63;;;7.70;84.70;;;;;;5029734;28;20488;-76
2021/01/20 03:52:52;;;;;;;14.15;8.70;;;7.70;84.70;;;;;;5034158;28;20689;-78
2021/01/20 03:55:18;;;;;;;12.98;8.68;;;7.70;84.80;;;;;;5032853;28;20496;-75
2021/01/20 03:57:44;;;;;;;12.98;8.68;;;7.70;84.80;;;;;;5031760;28;20124;-79
2021/01/20 04:00:10;;;;;;;14.07;9.13;;;7.70;84.80;;;;;;5033945;28;20243;-77
2021/01/20 04:02:35;;;;;;;12.73;7.82;;;7.70;84.90;;;;;;5031972;28;20076;-80
2021/01/20 04:05:01;;;;;;;12.70;8.15;;;7.70;85.00;;;;;;5035215;28;20033;-77
2021/01/20 04:07:27;;;;;;;14.48;8.38;;;7.70;85.00;;;;;;5033718;28;20478;-81
2021/01/20 04:09:52;;;;;;;11.73;7.53;;;7.70;85.10;;;;;;5033401;28;20552;-81
2021/01/20 04:12:18;;;;;;;14.00;7.53;;;7.80;84.90;;;;;;5030298;28;20029;-77
2021/01/20 04:14:44;;;;;;;12.35;8.07;;;7.70;85.00;;;;;;5032407;28;20041;-77
2021/01/20 04:17:09;;;;;;;13.27;8.27;;;7.70;85.10;;;;;;5040873;28;20068;-76
2021/01/20 04:19:35;;;;;;;13.70;7.90;;;7.70;85.10;;;;;;5032660;28;20049;-79
2021/01/20 04:22:01;;;;;;;12.52;7.70;;;7.70;85.20;;;;;;5034087;28;20100;-77
2021/01/20 04:24:26;;;;;;;13.85;7.88;;;7.70;85.30;;;;;;5029015;28;20464;-78
2021/01/20 04:26:52;;;;;;;12.57;7.47;;;7.70;85.30;;;;;;5030458;28;20579;-76
2021/01/20 04:29:17;;;;;;;12.48;7.60;;;7.70;85.50;;;;;;5033710;28;20048;-77
2021/01/20 04:31:43;;;;;;;14.00;8.45;;;7.60;85.70;;;;;;5031568;28;20041;-76
2021/01/20 04:34:09;;;;;;;11.77;7.57;;;7.60;85.80;;;;;;5033028;28;20025;-78
2021/01/20 04:36:35;;;;;;;13.77;7.85;;;7.60;85.80;;;;;;5027262;28;20029;-76
2021/01/20 04:39:01;;;;;;;11.65;7.50;;;7.70;85.90;;;;;;5031986;28;20730;-76
2021/01/20 04:41:27;;;;;;;12.18;7.35;;;7.70;86.00;;;;;;5036324;28;20095;-81
2021/01/20 04:43:53;;;;;;;13.13;7.60;;;7.70;86.10;;;;;;5032788;28;20041;-76
2021/01/20 04:46:19;;;;;;;12.20;7.72;;;7.60;86.40;;;;;;5031304;28;20045;-78
2021/01/20 04:48:48;;;;;;;13.32;7.13;;;7.60;86.50;;;;;;5030434;28;20053;-77
2021/01/20 04:51:18;;;;;;;12.05;7.57;;;7.60;87.20;;;;;;5029735;28;20037;-82
2021/01/20 04:53:45;;;;;;;12.43;7.55;;;7.60;87.80;;;;;;5032640;28;20044;-77
2021/01/20 04:56:12;;;;;;;12.75;7.38;;;7.60;88.20;;;;;;5045832;28;20124;-76
2021/01/20 04:58:39;;;;;;;12.35;7.72;;;7.50;88.70;;;;;;5031995;28;20056;-78
2021/01/20 05:01:05;;;;;;;11.73;7.45;;;7.50;88.80;;;;;;5033408;28;20512;-79
2021/01/20 05:03:31;;;;;;;13.90;7.63;;;7.50;89.10;;;;;;5036755;28;20139;-75
2021/01/20 05:05:57;;;;;;;12.23;7.90;;;7.40;89.10;;;;;;5033879;28;20037;-77
2021/01/20 05:08:23;;;;;;;10.43;7.25;;;7.50;89.30;;;;;;5032907;28;20044;-76
2021/01/20 05:10:50;;;;;;;13.35;7.70;;;7.40;89.40;;;;;;5031169;28;20036;-76
2021/01/20 05:13:26;;;;;;;13.10;7.32;;;7.40;89.40;;;;;;5028642;28;20120;-77
2021/01/20 05:15:52;;;;;;;11.30;7.38;;;7.40;89.60;;;;;;5029750;28;20056;-80
2021/01/20 05:18:18;;;;;;;11.32;6.75;;;7.40;89.60;;;;;;5029789;28;20295;-77
2021/01/20 05:20:43;;;;;;;13.15;7.20;;;7.40;89.60;;;;;;5032094;28;20033;-75
2021/01/20 05:23:10;;;;;;;12.85;7.47;;;7.40;89.70;;;;;;5034095;28;20055;-77
2021/01/20 05:25:42;;;;;;;13.43;8.15;;;7.40;89.60;;;;;;5033678;28;20721;-78
2021/01/20 05:28:27;;;;;;;11.40;7.47;;;7.40;89.60;;;;;;5036608;28;20041;-76
2021/01/20 05:30:58;;;;;;;13.02;7.72;;;7.40;89.60;;;;;;5040168;28;20487;-76
2021/01/20 05:33:26;;;;;;;13.07;7.85;;;7.40;89.60;;;;;;5036660;28;20037;-77
2021/01/20 05:36:09;;;;;;;12.20;7.30;;;7.30;89.80;;;;;;5033302;28;20064;-76
2021/01/20 05:38:39;;;;;;;13.20;7.60;;;7.40;89.80;;;;;;5032043;28;20710;-78
2021/01/20 05:41:28;;;;;;;11.15;6.97;;;7.40;89.80;;;;;;5029970;28;20073;-76
2021/01/20 05:44:15;;;;;;;10.35;6.63;;;7.50;89.80;;;;;;5023242;28;20543;-76
2021/01/20 05:46:43;;;;;;;10.90;6.90;;;7.40;89.60;;;;;;5034652;28;20041;-78
2021/01/20 05:49:30;;;;;;;12.65;7.10;;;7.50;89.50;;;;;;5034073;28;20041;-77
2021/01/20 05:51:55;;;;;;;11.60;6.90;;;7.50;89.50;;;;;;5030842;28;20033;-76
2021/01/20 05:54:38;;;;;;;10.98;6.85;;;7.50;89.20;;;;;;5032540;28;20179;-79
2021/01/20 05:57:19;;;;;;;11.95;6.97;;;7.50;89.20;;;;;;5030923;28;20271;-78
2021/01/20 05:59:46;;;;;;;9.82;6.38;;;7.50;89.30;;;;;;5031395;28;20112;-77
2021/01/20 06:02:13;;;;;;;10.98;6.57;;;7.60;89.30;;;;;;5030929;28;20033;-80
2021/01/20 06:04:40;;;;;;;11.77;6.30;;;7.50;89.40;;;;;;5031184;28;20052;-77
2021/01/20 06:07:07;;;;;;;14.30;6.57;;;7.50;89.40;;;;;;5030577;28;20083;-79
2021/01/20 06:09:34;;;;;;;12.27;6.82;;;7.50;89.30;;;;;;5030438;28;20094;-77
2021/01/20 06:12:02;;;;;;;11.90;6.57;;;7.50;89.50;;;;;;5031518;28;20487;-77
2021/01/20 06:14:28;;;;;;;10.80;5.88;;;7.60;89.40;;;;;;5030821;28;20041;-78
2021/01/20 06:17:14;;;;;;;10.70;5.95;;;7.60;89.20;;;;;;5032377;28;20033;-76
2021/01/20 06:19:47;;;;;;;11.90;6.90;;;7.60;89.10;;;;;;5030522;28;20045;-75
2021/01/20 06:22:18;;;;;;;9.60;5.85;;;7.60;89.00;;;;;;5033156;28;20030;-76
2021/01/20 06:24:48;;;;;;;10.90;6.47;;;7.60;88.90;;;;;;5030531;28;20360;-76
2021/01/20 06:27:31;;;;;;;11.10;5.93;;;7.60;88.80;;;;;;5031919;28;20696;-77
2021/01/20 06:30:07;;;;;;;10.52;5.80;;;7.60;88.80;;;;;;5033869;28;20052;-78
2021/01/20 06:32:34;;;;;;;11.35;6.13;;;7.60;88.80;;;;;;5035194;28;20124;-79
2021/01/20 06:35:00;;;;;;;9.23;5.85;;;7.60;88.50;;;;;;5028001;28;20032;-76
2021/01/20 06:37:46;;;;;;;10.35;5.35;;;7.60;88.40;;;;;;5029998;28;20045;-80
2021/01/20 06:40:21;;;;;;;10.70;6.70;;;7.60;88.20;;;;;;5030559;28;20130;-81
2021/01/20 06:42:48;;;;;;;10.52;6.22;;;7.60;88.10;;;;;;5031627;28;20763;-76
2021/01/20 06:45:19;;;;;;;10.77;6.93;;;7.60;88.00;;;;;;5027886;28;20088;-78
2021/01/20 06:48:00;;;;;;;10.38;5.20;;;7.60;87.70;;;;;;5030168;28;20029;-80
2021/01/20 06:50:33;;;;;;;10.75;5.72;;;7.60;87.60;;;;;;5026645;28;20737;-77
2021/01/20 06:53:04;;;;;;;9.60;5.75;;;7.60;87.50;;;;;;5028299;28;20029;-74
2021/01/20 06:55:38;;;;;;;11.85;5.90;;;7.60;87.50;;;;;;5027736;28;20033;-75
2021/01/20 06:58:26;;;;;;;11.82;5.85;;;7.60;87.30;;;;;;5031579;28;20378;-75
2021/01/20 07:01:01;;;;;;;10.35;5.32;;;7.60;87.30;;;;;;5033179;28;20040;-78
2021/01/20 07:03:48;;;;;;;9.93;5.45;;;7.60;87.10;;;;;;5031536;28;20063;-76
2021/01/20 07:06:33;;;;;;;9.18;5.55;;;7.60;86.90;;;;;;5031160;28;20682;-77
2021/01/20 07:08:59;;;;;;;9.43;5.25;;;7.60;86.90;;;;;;5034376;28;20562;-78
2021/01/20 07:11:25;;;;;;;9.10;4.90;;;7.60;86.80;;;;;;5036697;28;20049;-76
2021/01/20 07:13:50;;;;;;;9.30;4.93;;;7.60;86.80;;;;;;5035267;28;20116;-81
2021/01/20 07:16:17;;;;;;;10.07;5.25;;;7.60;86.60;;;;;;5036496;28;20232;-79
2021/01/20 07:18:47;;;;;;;11.18;5.15;;;7.60;86.80;;;;;;5036552;28;20046;-76
2021/01/20 07:21:13;;;;;;;8.10;4.40;;;7.50;86.50;;;;;;5037791;28;20032;-77
2021/01/20 07:23:40;;;;;;;9.48;5.40;;;7.60;86.50;;;;;;5039083;28;20029;-72
2021/01/20 07:26:06;;;;;;;8.80;5.30;;;7.60;86.40;;;;;;5030837;28;20037;-73
2021/01/20 07:28:33;;;;;;;8.90;4.57;;;7.60;86.10;;;;;;5032387;28;20477;-71
2021/01/20 07:31:04;;;;;;;9.35;4.57;;;7.50;86.10;;;;;;5031575;28;20682;-74
2021/01/20 07:33:30;;;;;;;8.63;4.72;;;7.50;85.90;;;;;;5028087;28;20376;-71
2021/01/20 07:35:56;;;;;;;11.80;5.50;;;7.50;86.00;;;;;;5033649;28;20036;-73
2021/01/20 07:38:31;;;;;;;8.48;4.78;;;7.50;85.90;;;;;;5032549;28;20099;-71
2021/01/20 07:40:57;;;;;;;8.07;4.35;;;7.50;85.60;;;;;;5036760;28;20480;-72
2021/01/20 07:43:23;;;;;;;8.65;4.20;;;7.50;85.60;;;;;;5033097;28;20059;-71
2021/01/20 07:45:50;;;;;;;8.35;4.47;;;7.50;85.20;;;;;;5050570;28;21019;-75
2021/01/20 07:48:17;;;;;;;8.02;4.60;;;7.60;85.10;;;;;;5037340;28;20196;-71
2021/01/20 07:50:49;;;;;;;8.32;4.55;;;7.60;84.70;;;;;;5039766;28;20103;-72
2021/01/20 07:53:17;;;;;;;8.73;4.57;;;7.60;84.50;;;;;;5035563;28;20124;-72
2021/01/20 07:55:43;;;;;;;11.32;4.40;;;7.60;84.30;;;;;;5040049;28;20039;-72
2021/01/20 07:58:09;;;;;;;9.95;4.68;;;7.60;84.10;;;;;;5038611;28;20462;-72
2021/01/20 08:00:42;;;;;;;10.18;4.53;;;7.60;84.10;;;;;;5034820;28;20037;-71
2021/01/20 08:03:08;;;;;;;9.10;4.03;;;7.60;84.10;;;;;;5031825;28;20679;-71
2021/01/20 08:05:35;;;;;;;8.55;4.45;;;7.60;83.90;;;;;;5032446;28;20045;-72
2021/01/20 08:08:11;;;;;;;8.73;4.88;;;7.70;83.70;;;;;;5030591;28;20049;-72
2021/01/20 08:10:37;;;;;;;8.02;4.65;;;7.70;83.50;;;;;;5032832;28;20045;-73
2021/01/20 08:13:05;;;;;;;7.18;3.95;;;7.70;83.30;;;;;;5036324;28;20098;-71
2021/01/20 08:15:32;;;;;;;8.23;3.97;;;7.70;82.90;;;;;;5037762;28;20059;-73
2021/01/20 08:17:58;;;;;;;7.78;3.92;;;7.70;82.60;;;;;;5036336;28;20032;-72
2021/01/20 08:20:25;;;;;;;8.63;4.43;;;7.80;82.00;;;;;;5035288;28;20510;-71
2021/01/20 08:22:52;;;;;;;7.47;3.90;;;7.80;81.80;;;;;;5039554;28;20084;-70
2021/01/20 08:25:20;;;;;;;9.43;4.15;;;7.90;81.30;;;;;;5035794;28;20502;-71
2021/01/20 08:27:46;;;;;;;8.82;4.05;;;7.90;81.30;;;;;;5037924;28;20107;-72
2021/01/20 08:30:13;;;;;;;7.40;4.07;;;7.80;81.00;;;;;;5033795;28;20045;-70
2021/01/20 08:32:58;;;;;;;7.18;3.83;;;7.80;80.70;;;;;;5034716;28;20033;-72
2021/01/20 08:35:31;;;;;;;;;;;7.90;80.80;;;;;;5037651;28;20480;-70
2021/01/20 08:37:57;;;;;;;6.28;3.70;;;7.90;80.80;;;;;;5036060;28;19917;-74
2021/01/20 08:40:23;;;;;;;8.80;4.07;;;7.90;80.90;;;;;;5034165;28;20044;-70
2021/01/20 08:42:49;;;;;;;6.93;3.92;;;7.80;80.70;;;;;;5033300;28;20494;-70
2021/01/20 08:45:15;;;;;;;8.02;3.67;;;7.80;80.60;;;;;;5034412;28;20033;-70
2021/01/20 08:47:55;;;;;;;9.75;4.32;;;7.80;80.00;;;;;;5036644;28;20063;-73
2021/01/20 08:50:27;;;;;;;7.30;4.10;;;7.80;80.30;;;;;;5033219;28;20566;-75
2021/01/20 08:52:53;;;;;;;8.98;4.30;;;7.80;80.50;;;;;;5036500;28;20037;-74
2021/01/20 08:55:31;;;;;;;7.40;4.03;;;7.80;80.00;;;;;;5029719;28;20033;-77
2021/01/20 08:58:16;;;;;;;8.30;3.85;;;7.80;80.10;;;;;;5034099;28;20049;-71
2021/01/20 09:00:42;;;;;;;7.45;4.00;;;7.80;80.00;;;;;;5034951;28;20122;-71
2021/01/20 09:03:19;;;;;;;8.73;4.22;;;7.80;79.70;;;;;;5034222;28;20029;-70
2021/01/20 09:05:46;;;;;;;7.35;3.90;;;7.90;79.80;;;;;;5034039;28;20738;-70
2021/01/20 09:08:13;;;;;;;9.07;4.38;;;7.90;79.70;;;;;;5031564;28;20119;-73
2021/01/20 09:10:39;;;;;;;9.07;4.65;;;8.00;79.80;;;;;;5034314;28;20646;-71
2021/01/20 09:13:05;;;;;;;6.97;3.65;;;7.90;79.30;;;;;;5031955;28;20119;-71
2021/01/20 09:15:30;;;;;;;7.70;4.10;;;7.90;79.50;;;;;;5033390;28;20156;-75
2021/01/20 09:17:56;;;;;;;7.90;4.05;;;7.90;79.50;;;;;;5030000;28;20380;-71
2021/01/20 09:20:22;;;;;;;7.53;4.00;;;7.90;79.30;;;;;;5033954;28;21400;-72
2021/01/20 09:22:48;;;;;;;7.70;3.75;;;8.00;78.80;;;;;;5032216;28;20540;-78
2021/01/20 09:25:14;;;;;;;7.43;4.03;;;8.10;79.00;;;;;;5028095;28;20033;-75
2021/01/20 09:27:40;;;;;;;9.88;4.05;;;8.10;78.80;;;;;;5031483;28;20048;-73
2021/01/20 09:30:07;;;;;;;8.73;4.00;;;8.10;78.50;;;;;;5027516;28;20048;-75
2021/01/20 09:32:37;;;;;;;9.88;3.85;;;8.10;78.10;;;;;;5029075;28;20124;-71
2021/01/20 09:35:11;;;;;;;7.03;3.80;;;8.20;77.60;;;;;;5033345;28;20079;-75
2021/01/20 09:37:38;;;;;;;6.95;3.40;;;8.20;77.60;;;;;;5032814;28;20603;-73
2021/01/20 09:40:07;;;;;;;8.63;4.20;;;8.20;77.20;;;;;;5039511;28;20066;-72
2021/01/20 09:42:33;;;;;;;9.80;3.75;;;8.20;77.90;;;;;;5053552;28;20403;-71
2021/01/20 09:44:58;;;;;;;8.55;3.80;;;8.30;77.30;;;;;;5031614;28;20045;-73
2021/01/20 09:47:24;;;;;;;8.75;4.35;;;8.30;77.00;;;;;;5031347;28;20037;-71
2021/01/20 09:49:50;;;;;;;8.80;3.88;;;8.30;76.90;;;;;;5028859;28;20510;-76
2021/01/20 09:52:17;;;;;;;8.13;3.97;;;8.40;77.00;;;;;;5028675;28;20037;-71
2021/01/20 09:54:43;;;;;;;7.68;3.90;;;8.40;76.70;;;;;;5037926;28;20383;-71
2021/01/20 09:57:09;;;;;;;6.57;3.67;;;8.40;76.60;;;;;;5030698;28;20037;-70
2021/01/20 09:59:35;;;;;;;7.30;3.70;;;8.50;76.30;;;;;;5034524;28;20076;-71
2021/01/20 10:02:00;;;;;;;9.90;3.83;;;8.50;76.30;;;;;;5031272;28;20144;-74
2021/01/20 10:04:26;;;;;;;11.02;4.07;;;8.50;76.30;;;;;;5036818;28;20045;-71
2021/01/20 10:06:55;;;;;;;8.77;3.55;;;8.50;76.50;;;;;;5034001;28;20036;-72
2021/01/20 10:09:21;;;;;;;10.40;3.83;;;8.50;76.50;;;;;;5037114;28;20049;-71
2021/01/20 10:11:49;;;;;;;8.60;3.92;;;8.50;76.50;;;;;;5036489;28;20037;-73
2021/01/20 10:14:16;;;;;;;9.00;4.10;;;8.60;76.50;;;;;;5028878;28;20349;-71
2021/01/20 10:16:41;;;;;;;7.82;3.97;;;8.70;75.60;;;;;;5030537;28;20099;-73
2021/01/20 10:19:07;;;;;;;7.55;3.78;;;8.70;75.90;;;;;;5029702;28;20052;-72
2021/01/20 10:21:32;;;;;;;7.45;3.85;;;8.70;75.40;;;;;;5039473;28;20033;-73
2021/01/20 10:23:58;;;;;;;9.63;4.10;;;8.70;75.90;;;;;;5033949;28;20548;-70
2021/01/20 10:26:27;;;;;;;9.48;5.00;;;8.70;76.20;;;;;;5027428;28;20044;-75
2021/01/20 10:28:52;;;;;;;7.38;3.88;;;8.70;76.30;;;;;;5033861;28;20067;-71
2021/01/20 10:31:18;;;;;;;7.38;3.97;;;8.70;75.90;;;;;;5028579;28;20456;-77
2021/01/20 10:33:44;;;;;;;8.98;4.88;;;8.60;76.40;;;;;;5033159;28;20034;-71
2021/01/20 10:36:09;;;;;;;9.15;4.75;;;8.60;76.50;;;;;;5029522;28;20036;-71
2021/01/20 10:38:35;;;;;;;13.25;6.80;;;8.60;77.40;;;;;;5030014;28;20033;-72
2021/01/20 10:41:00;;;;;;;16.77;9.52;;;8.70;77.30;;;;;;5035635;28;20580;-76
2021/01/20 10:43:26;;;;;;;30.02;18.17;;;8.60;77.10;;;;;;5034213;28;20037;-76
2021/01/20 10:45:52;;;;;;;8.38;4.10;;;8.70;76.70;;;;;;5034712;28;20041;-72
2021/01/20 10:48:17;;;;;;;12.95;7.28;;;8.70;76.80;;;;;;5035187;28;20165;-76
2021/01/20 10:50:43;;;;;;;16.10;8.18;;;8.60;77.60;;;;;;5032005;28;20029;-74
2021/01/20 10:53:08;;;;;;;10.82;5.28;;;8.60;78.10;;;;;;5032280;28;20147;-75
2021/01/20 10:55:34;;;;;;;10.02;4.72;;;8.60;78.40;;;;;;5033732;28;20037;-71
2021/01/20 10:58:00;;;;;;;9.25;4.40;;;8.60;78.40;;;;;;5034495;28;20029;-73
2021/01/20 11:00:26;;;;;;;7.22;3.70;;;8.60;78.90;;;;;;5031741;28;20043;-71
2021/01/20 11:02:51;;;;;;;7.80;3.63;;;8.50;78.70;;;;;;5031839;28;20179;-72
2021/01/20 11:05:17;;;;;;;9.05;3.55;;;8.50;78.70;;;;;;5032156;28;20488;-72
2021/01/20 11:07:43;;;;;;;9.15;4.20;;;8.50;78.50;;;;;;5035360;28;20025;-73
2021/01/20 11:10:09;;;;;;;9.05;4.38;;;8.60;78.00;;;;;;5030946;28;20130;-72
2021/01/20 11:12:34;;;;;;;11.43;4.20;;;8.60;77.60;;;;;;5032424;28;20041;-71
2021/01/20 11:15:00;;;;;;;9.85;4.05;;;8.60;77.10;;;;;;5036299;28;20033;-72
2021/01/20 11:17:26;;;;;;;7.85;4.07;;;8.60;77.20;;;;;;5032952;28;20120;-71
2021/01/20 11:19:52;;;;;;;8.50;3.92;;;8.60;77.00;;;;;;5039962;28;20357;-73
2021/01/20 11:22:18;;;;;;;9.57;3.92;;;8.70;77.00;;;;;;5044941;28;20024;-76
2021/01/20 11:24:43;;;;;;;9.32;4.38;;;8.70;76.40;;;;;;5038375;28;20037;-75
2021/01/20 11:27:09;;;;;;;8.82;3.97;;;8.70;76.10;;;;;;5036144;28;20049;-74
2021/01/20 11:29:35;;;;;;;7.78;3.90;;;8.70;75.80;;;;;;5035092;28;20130;-72
2021/01/20 11:32:00;;;;;;;9.13;4.18;;;8.70;75.60;;;;;;5031434;28;20037;-73
2021/01/20 11:34:26;;;;;;;10.55;4.35;;;8.70;75.20;;;;;;5037490;28;20044;-72
2021/01/20 11:36:52;;;;;;;8.15;3.60;;;8.80;74.90;;;;;;5037148;28;20037;-74
2021/01/20 11:39:17;;;;;;;8.45;4.15;;;8.70;75.00;;;;;;5034420;28;20402;-73
2021/01/20 11:41:43;;;;;;;8.10;4.22;;;8.70;74.60;;;;;;5033867;28;20452;-75
2021/01/20 11:44:09;;;;;;;7.72;3.90;;;8.80;74.20;;;;;;5038330;28;20168;-72
2021/01/20 11:46:34;;;;;;;10.13;3.28;;;8.80;74.10;;;;;;5035239;28;20040;-72
2021/01/20 11:49:07;;;;;;;6.45;3.38;;;8.80;73.70;;;;;;5032441;28;20057;-72
2021/01/20 11:51:34;;;;;;;9.27;3.92;;;8.80;73.50;;;;;;5031276;28;20090;-71
2021/01/20 11:54:00;;;;;;;6.38;3.38;;;8.90;73.40;;;;;;5034999;28;20387;-72
2021/01/20 11:56:26;;;;;;;7.20;3.83;;;9.00;73.40;;;;;;5033913;28;20041;-73
2021/01/20 11:58:51;;;;;;;7.55;3.55;;;9.00;72.70;;;;;;5032231;28;20548;-73
2021/01/20 12:01:22;;;;;;;8.50;3.92;;;9.10;72.70;;;;;;5034827;28;20079;-71
2021/01/20 12:03:50;;;;;;;7.43;3.80;;;9.10;72.70;;;;;;5034429;28;20049;-71
2021/01/20 12:06:16;;;;;;;7.75;3.55;;;9.30;72.20;;;;;;5035565;28;20512;-71
2021/01/20 12:08:42;;;;;;;7.38;3.72;;;9.40;71.60;;;;;;5031663;28;20166;-74
2021/01/20 12:11:07;;;;;;;9.43;3.47;;;9.60;70.80;;;;;;5034359;28;20058;-74
2021/01/20 12:13:33;;;;;;;8.23;3.70;;;9.50;70.30;;;;;;5031280;28;20041;-73
2021/01/20 12:15:58;;;;;;;7.68;3.42;;;9.60;70.90;;;;;;5030267;28;20376;-71
2021/01/20 12:18:24;;;;;;;6.80;3.53;;;9.60;70.50;;;;;;5031308;28;20061;-73
2021/01/20 12:20:50;;;;;;;10.20;3.95;;;9.60;70.10;;;;;;5033049;28;20739;-74
2021/01/20 12:23:15;;;;;;;10.02;3.90;;;9.60;69.90;;;;;;5030976;28;20025;-71
2021/01/20 12:25:41;;;;;;;7.05;3.45;;;9.60;69.90;;;;;;5035144;28;20033;-72
2021/01/20 12:28:06;;;;;;;9.52;4.25;;;9.60;69.80;;;;;;5032341;28;20479;-74
2021/01/20 12:30:32;;;;;;;7.63;3.30;;;9.70;69.40;;;;;;5032381;28;20119;-72
2021/01/20 12:32:58;;;;;;;7.28;3.72;;;9.60;69.30;;;;;;5028974;28;20119;-73
2021/01/20 12:35:23;;;;;;;6.75;3.17;;;9.60;69.40;;;;;;5030115;28;20106;-73
2021/01/20 12:37:49;;;;;;;6.15;3.03;;;9.60;68.20;;;;;;5034316;28;20680;-72
2021/01/20 12:40:15;;;;;;;6.35;3.10;;;9.80;68.70;;;;;;5029885;28;20321;-76
2021/01/20 12:42:41;;;;;;;6.80;3.38;;;9.70;67.80;;;;;;5031199;28;20048;-74
2021/01/20 12:45:09;;;;;;;6.82;3.38;;;9.80;68.00;;;;;;5029825;28;20446;-75
2021/01/20 12:47:35;;;;;;;7.35;3.20;;;9.90;67.60;;;;;;5028982;28;20039;-76
2021/01/20 12:50:00;;;;;;;9.25;3.17;;;10.00;67.70;;;;;;5031385;28;20049;-77
2021/01/20 12:52:26;;;;;;;7.53;3.20;;;10.00;66.70;;;;;;5032379;28;20045;-77